Perezville, Texas
Current Conditions -  °F | °C
As of 1:53 PM on Friday 24 Oct 2014 (Local Time) from KMFE Reporting Station
Clear Clear  
Wind Chill: 85°   Ceiling: Unl
Heat Index: 85°   Visibility: 10mi
Dew Point: 60°   Wind: 6mph
Humidity: 43%   Direction: 30°NNE
Pressure: 30.11"   Gusts: NA
Location:  26.2167°N, 98.325°W
Report Text: KMFE 241853Z 03005KT 10SM CLR 29/16 A3011 RMK AO2 SLP193 T02940156
Loading
Personal Weather Stations






























Interactive Weather Map
Tropical Storm Tracking
New forecast layout! Learn more

10-Day Weather Forecast

Advertisements
Track Severe Weather on mobile